Time;durP1;ratioP1;P1;durP2;ratioP2;P2;SDS_P1;SDS_P2;PMS_P1;PMS_P2;Temp;Humidity;BMP_temperature;BMP_pressure;BME280_temperature;BME280_humidity;BME280_pressure;Samples;Min_cycle;Max_cycle;Signal;HPM_P1;HPM_P2
2022/05/08 00:00:35;;;;;;;33.58;7.30;;;5.60;99.90;;;;;;5029518;28;20049;-78
2022/05/08 00:03:00;;;;;;;41.08;8.52;;;5.60;99.90;;;;;;5014470;28;20089;-79
2022/05/08 00:05:26;;;;;;;33.95;7.25;;;5.50;99.90;;;;;;5014032;28;20038;-80
2022/05/08 00:07:52;;;;;;;29.27;7.13;;;5.50;99.90;;;;;;5014549;28;20117;-80
2022/05/08 00:10:18;;;;;;;25.13;6.07;;;5.50;99.90;;;;;;5013153;28;20435;-79
2022/05/08 00:12:44;;;;;;;37.80;7.65;;;5.40;99.90;;;;;;5014423;28;20034;-80
2022/05/08 00:15:10;;;;;;;38.30;6.60;;;5.30;99.90;;;;;;5014182;28;20125;-79
2022/05/08 00:17:36;;;;;;;35.47;8.07;;;5.20;99.90;;;;;;5014217;28;20046;-79
2022/05/08 00:20:04;;;;;;;31.58;8.15;;;5.20;99.90;;;;;;5029504;28;20038;-80
2022/05/08 00:22:29;;;;;;;41.47;8.25;;;5.10;99.90;;;;;;5014621;28;20116;-80
2022/05/08 00:24:55;;;;;;;27.05;7.32;;;5.10;99.90;;;;;;5013985;28;20081;-80
2022/05/08 00:27:21;;;;;;;35.58;7.20;;;5.10;99.90;;;;;;5012805;28;20081;-80
2022/05/08 00:29:47;;;;;;;27.95;6.82;;;5.10;99.90;;;;;;5014330;28;20176;-80
2022/05/08 00:32:12;;;;;;;27.35;6.70;;;5.20;99.90;;;;;;5014334;28;20073;-80
2022/05/08 00:34:38;;;;;;;34.63;7.03;;;5.20;99.90;;;;;;5014173;28;20042;-80
2022/05/08 00:37:05;;;;;;;31.83;7.85;;;5.20;99.90;;;;;;5013933;28;20041;-80
2022/05/08 00:39:32;;;;;;;32.30;7.28;;;5.20;99.90;;;;;;5014174;28;20122;-80
2022/05/08 00:41:58;;;;;;;29.17;6.75;;;5.20;99.90;;;;;;5013942;28;20633;-79
2022/05/08 00:44:24;;;;;;;42.42;7.85;;;5.30;99.90;;;;;;5013730;28;20074;-80
2022/05/08 00:46:49;;;;;;;45.55;9.50;;;5.30;99.90;;;;;;5013557;28;20049;-81
2022/05/08 00:49:15;;;;;;;35.40;7.03;;;5.40;99.90;;;;;;5013824;28;20509;-80
2022/05/08 00:51:43;;;;;;;32.05;7.07;;;5.40;99.90;;;;;;5013839;28;20050;-79
2022/05/08 00:54:09;;;;;;;31.13;6.88;;;5.40;99.90;;;;;;5013671;28;20537;-81
2022/05/08 00:56:35;;;;;;;31.60;6.40;;;5.40;99.90;;;;;;5013798;28;20077;-80
2022/05/08 00:59:00;;;;;;;27.27;6.07;;;6.40;99.90;;;;;;5014052;28;20445;-79
2022/05/08 01:01:26;;;;;;;31.65;6.65;;;5.60;99.90;;;;;;5013437;28;20054;-81
2022/05/08 01:03:52;;;;;;;24.42;4.82;;;5.60;99.90;;;;;;5013318;28;20092;-80
2022/05/08 01:06:18;;;;;;;22.13;6.10;;;5.60;99.90;;;;;;5013469;28;20081;-80
2022/05/08 01:08:46;;;;;;;25.67;6.47;;;5.60;99.90;;;;;;5013187;28;20042;-80
2022/05/08 01:11:12;;;;;;;14.65;5.43;;;5.60;99.90;;;;;;5013743;28;20089;-80
2022/05/08 01:13:39;;;;;;;24.77;5.85;;;5.70;99.90;;;;;;5013623;28;20034;-80
2022/05/08 01:16:09;;;;;;;22.55;6.65;;;5.70;99.90;;;;;;5013564;28;20422;-80
2022/05/08 01:18:35;;;;;;;32.88;5.90;;;5.70;99.90;;;;;;5013363;28;20048;-80
2022/05/08 01:21:02;;;;;;;28.48;6.28;;;5.60;99.90;;;;;;5013607;28;20518;-80
2022/05/08 01:23:27;;;;;;;22.88;5.60;;;5.60;99.90;;;;;;5013369;28;20402;-80
2022/05/08 01:25:55;;;;;;;24.33;5.75;;;5.60;99.90;;;;;;5013018;28;20045;-80
2022/05/08 01:28:22;;;;;;;30.35;7.35;;;5.60;99.90;;;;;;5013554;28;20390;-81
2022/05/08 01:30:49;;;;;;;22.55;7.20;;;5.60;99.90;;;;;;5013069;28;20129;-80
2022/05/08 01:33:15;;;;;;;31.02;5.95;;;5.60;99.90;;;;;;5028809;28;20057;-81
2022/05/08 01:35:44;;;;;;;27.40;7.05;;;5.60;99.90;;;;;;5011793;28;20050;-80
2022/05/08 01:38:13;;;;;;;22.88;6.35;;;5.50;99.90;;;;;;5012902;28;20065;-80
2022/05/08 01:40:39;;;;;;;25.40;5.10;;;5.40;99.90;;;;;;5012923;28;20041;-80
2022/05/08 01:43:05;;;;;;;21.23;5.72;;;5.30;99.90;;;;;;5013372;28;20049;-80
2022/05/08 01:45:31;;;;;;;25.23;6.25;;;5.10;99.90;;;;;;5013075;28;20049;-80
2022/05/08 01:50:44;;;;;;;39.20;9.13;;;4.90;99.90;;;;;;5013443;28;20446;-79
2022/05/08 01:53:10;;;;;;;23.50;6.57;;;4.80;99.90;;;;;;5013093;28;20049;-80
2022/05/08 01:55:36;;;;;;;29.15;5.55;;;4.70;99.90;;;;;;5011576;28;20041;-80
2022/05/08 01:58:02;;;;;;;29.02;5.78;;;4.70;99.90;;;;;;5012981;28;20437;-80
2022/05/08 02:00:29;;;;;;;30.67;6.18;;;4.80;99.90;;;;;;5053196;23;20050;-78
2022/05/08 02:02:59;;;;;;;21.38;5.97;;;4.70;99.90;;;;;;4997714;28;20057;-78
2022/05/08 02:05:25;;;;;;;16.23;4.85;;;4.70;99.90;;;;;;5020903;28;20045;-78
2022/05/08 02:07:51;;;;;;;26.95;6.28;;;4.60;99.90;;;;;;5011763;28;20041;-78
2022/05/08 02:10:17;;;;;;;25.42;7.18;;;4.50;99.90;;;;;;5012612;28;20169;-79
2022/05/08 02:12:44;;;;;;;27.42;6.80;;;4.60;99.90;;;;;;5013190;28;20053;-78
2022/05/08 02:15:11;;;;;;;20.85;6.60;;;4.50;99.90;;;;;;5014881;28;20064;-78
2022/05/08 02:17:38;;;;;;;34.63;6.13;;;4.50;99.90;;;;;;5015674;28;20046;-79
2022/05/08 02:20:06;;;;;;;35.35;7.05;;;4.30;99.90;;;;;;5016760;28;20085;-78
2022/05/08 02:22:33;;;;;;;30.15;6.53;;;4.40;99.90;;;;;;5015904;28;20038;-78
2022/05/08 02:24:59;;;;;;;26.58;5.75;;;4.50;99.90;;;;;;5014932;28;20447;-78
2022/05/08 02:27:24;;;;;;;37.22;7.75;;;4.70;99.90;;;;;;5016721;28;20029;-78
2022/05/08 02:29:51;;;;;;;27.95;5.95;;;4.70;99.90;;;;;;5017219;28;20430;-78
2022/05/08 02:32:17;;;;;;;22.73;5.65;;;4.60;99.90;;;;;;5017060;28;20117;-79
2022/05/08 02:34:44;;;;;;;33.85;7.90;;;4.70;99.90;;;;;;5028527;28;20049;-78
2022/05/08 02:37:09;;;;;;;24.20;5.90;;;4.60;99.90;;;;;;5015740;28;20120;-78
2022/05/08 02:39:35;;;;;;;21.17;5.28;;;4.50;99.90;;;;;;5014871;28;20084;-78
2022/05/08 02:42:00;;;;;;;18.40;4.82;;;4.40;99.90;;;;;;5016585;28;20076;-78
2022/05/08 02:44:26;;;;;;;27.50;6.85;;;4.40;99.90;;;;;;5015274;28;20092;-79
2022/05/08 02:46:51;;;;;;;25.48;5.80;;;4.10;99.90;;;;;;5015434;28;20060;-78
2022/05/08 02:49:17;;;;;;;28.77;6.40;;;4.00;99.90;;;;;;5015413;28;20099;-78
2022/05/08 02:51:42;;;;;;;26.63;7.47;;;3.90;99.90;;;;;;5015212;28;20048;-78
2022/05/08 02:54:08;;;;;;;28.27;6.55;;;3.80;99.90;;;;;;5016056;28;20621;-78
2022/05/08 02:59:17;;;;;;;27.35;5.57;;;3.60;99.90;;;;;;5016368;28;20080;-78
2022/05/08 03:01:43;;;;;;;22.13;6.65;;;3.60;99.90;;;;;;5015973;28;20053;-78
2022/05/08 03:04:09;;;;;;;26.80;6.65;;;3.60;99.90;;;;;;5015900;28;20117;-78
2022/05/08 03:06:34;;;;;;;24.67;6.88;;;3.40;99.90;;;;;;5014764;28;20050;-79
2022/05/08 03:09:00;;;;;;;23.40;6.70;;;3.70;99.90;;;;;;5016011;28;20505;-78
2022/05/08 03:11:25;;;;;;;21.25;6.60;;;3.60;99.90;;;;;;5015847;28;20084;-79
2022/05/08 03:13:52;;;;;;;22.05;5.60;;;3.80;99.90;;;;;;5015712;28;20486;-79
2022/05/08 03:16:18;;;;;;;23.67;7.07;;;3.90;99.90;;;;;;5015276;28;20137;-78
2022/05/08 03:18:45;;;;;;;19.13;6.45;;;3.90;99.90;;;;;;5015667;28;20176;-78
2022/05/08 03:21:12;;;;;;;22.30;5.93;;;4.00;99.90;;;;;;5015550;28;20057;-78
2022/05/08 03:23:38;;;;;;;25.38;6.53;;;4.00;99.90;;;;;;5015286;28;20056;-78
2022/05/08 03:26:04;;;;;;;29.30;7.00;;;4.30;99.90;;;;;;5014656;28;20041;-78
2022/05/08 03:28:31;;;;;;;16.05;5.45;;;4.40;99.90;;;;;;5015626;28;20049;-78
2022/05/08 03:30:57;;;;;;;19.17;6.82;;;4.50;99.90;;;;;;5015464;28;20056;-78
2022/05/08 03:33:23;;;;;;;26.30;7.43;;;4.40;99.90;;;;;;5015345;28;20113;-79
2022/05/08 03:35:48;;;;;;;18.80;4.97;;;4.30;99.90;;;;;;5013849;28;20056;-79
2022/05/08 03:38:14;;;;;;;22.65;6.20;;;4.40;99.90;;;;;;5015430;28;20037;-78
2022/05/08 03:40:40;;;;;;;21.17;5.25;;;4.40;99.90;;;;;;5015115;28;20410;-78
2022/05/08 03:43:05;;;;;;;24.20;6.53;;;4.30;99.90;;;;;;5015372;28;20080;-78
2022/05/08 03:45:31;;;;;;;14.82;5.03;;;4.20;99.90;;;;;;5030224;28;20124;-79
2022/05/08 03:47:59;;;;;;;18.13;4.20;;;4.30;99.90;;;;;;5013900;28;20125;-78
2022/05/08 03:50:25;;;;;;;19.95;5.53;;;4.40;99.90;;;;;;5014932;28;20045;-78
2022/05/08 03:52:51;;;;;;;18.15;4.88;;;4.40;99.90;;;;;;5014155;28;20077;-78
2022/05/08 03:55:17;;;;;;;18.85;5.30;;;4.40;99.90;;;;;;5030057;28;20084;-79
2022/05/08 03:57:45;;;;;;;19.45;5.40;;;4.30;99.90;;;;;;5014448;28;20048;-79
2022/05/08 04:00:13;;;;;;;18.55;4.53;;;4.20;99.90;;;;;;5014702;28;20054;-78
2022/05/08 04:02:39;;;;;;;27.35;4.82;;;4.10;99.90;;;;;;5014789;28;20103;-78
2022/05/08 04:05:06;;;;;;;25.60;5.95;;;4.00;99.90;;;;;;5014517;28;20099;-79
2022/05/08 04:07:32;;;;;;;13.70;4.05;;;3.90;99.90;;;;;;5030011;28;20494;-79
2022/05/08 04:09:58;;;;;;;24.55;5.38;;;3.90;99.90;;;;;;5013625;28;20060;-79
2022/05/08 04:12:24;;;;;;;21.75;4.88;;;3.80;99.90;;;;;;5013587;28;20049;-79
2022/05/08 04:14:50;;;;;;;17.20;4.70;;;3.80;99.90;;;;;;5014760;28;20053;-79
2022/05/08 04:17:16;;;;;;;17.95;4.95;;;3.90;99.90;;;;;;5014396;28;20060;-79
2022/05/08 04:19:42;;;;;;;20.52;4.68;;;3.90;99.90;;;;;;5029901;28;20409;-79
2022/05/08 04:24:52;;;;;;;14.32;5.18;;;4.00;99.90;;;;;;5014621;28;20054;-79
2022/05/08 04:27:18;;;;;;;16.85;4.55;;;4.10;99.90;;;;;;5014377;28;20375;-79
2022/05/08 04:29:44;;;;;;;20.58;5.22;;;4.10;99.90;;;;;;5014307;28;20103;-79
2022/05/08 04:32:10;;;;;;;16.58;4.78;;;4.20;99.90;;;;;;5014259;28;20078;-80
2022/05/08 04:34:36;;;;;;;23.33;4.57;;;4.30;99.90;;;;;;5013467;28;20099;-79
2022/05/08 04:37:03;;;;;;;11.73;3.75;;;4.40;99.90;;;;;;5014136;28;20089;-80
2022/05/08 04:39:29;;;;;;;18.95;4.82;;;4.40;99.90;;;;;;5014432;28;20093;-79
2022/05/08 04:41:54;;;;;;;18.08;4.22;;;4.50;99.90;;;;;;5013514;28;20378;-79
2022/05/08 04:44:20;;;;;;;15.32;4.13;;;4.60;99.90;;;;;;5014203;28;20041;-79
2022/05/08 04:46:46;;;;;;;15.77;4.28;;;4.50;99.90;;;;;;4996259;28;20121;-80
2022/05/08 04:49:11;;;;;;;20.50;4.90;;;4.60;99.90;;;;;;5012770;28;20046;-79
2022/05/08 04:51:37;;;;;;;20.42;4.50;;;4.60;99.90;;;;;;5013234;28;20050;-79
2022/05/08 04:54:03;;;;;;;13.30;3.85;;;4.80;99.90;;;;;;5014419;28;20125;-80
2022/05/08 04:56:32;;;;;;;13.50;3.40;;;4.90;99.90;;;;;;5013853;28;20034;-80
2022/05/08 04:58:57;;;;;;;20.65;3.28;;;5.00;99.90;;;;;;5013983;28;20054;-79
2022/05/08 05:01:24;;;;;;;11.85;3.50;;;5.10;99.90;;;;;;5012312;28;20053;-80
2022/05/08 05:03:50;;;;;;;18.20;5.05;;;5.20;99.90;;;;;;5013843;28;20065;-79
2022/05/08 05:06:16;;;;;;;9.52;3.42;;;5.40;99.90;;;;;;5001172;28;20548;-80
2022/05/08 05:08:45;;;;;;;13.18;2.83;;;5.60;99.90;;;;;;5029221;28;20124;-81
2022/05/08 05:11:11;;;;;;;14.93;3.58;;;5.80;99.90;;;;;;5014050;28;20037;-79
2022/05/08 05:13:38;;;;;;;13.40;3.38;;;5.90;99.90;;;;;;5013947;28;20095;-80
2022/05/08 05:16:04;;;;;;;13.70;4.20;;;6.20;99.90;;;;;;5012540;28;20426;-79
2022/05/08 05:18:30;;;;;;;10.73;3.10;;;6.30;99.90;;;;;;5013939;28;20038;-80
2022/05/08 05:20:55;;;;;;;12.55;2.58;;;6.50;99.90;;;;;;5029121;28;20050;-80
2022/05/08 05:23:21;;;;;;;17.15;3.47;;;6.70;99.90;;;;;;5013911;28;20052;-80
2022/05/08 05:25:48;;;;;;;14.40;2.83;;;6.80;99.90;;;;;;5012045;28;20049;-79
2022/05/08 05:28:13;;;;;;;12.73;2.70;;;7.00;99.90;;;;;;5028489;28;20133;-80
2022/05/08 05:30:39;;;;;;;15.60;3.65;;;7.20;99.90;;;;;;5013157;28;20121;-80
2022/05/08 05:33:05;;;;;;;18.85;2.78;;;7.40;99.90;;;;;;5013876;28;20573;-80
2022/05/08 05:35:30;;;;;;;18.23;3.45;;;7.50;99.90;;;;;;5011895;28;20050;-80
2022/05/08 05:37:56;;;;;;;16.42;3.58;;;7.70;99.90;;;;;;5012501;28;20053;-80
2022/05/08 05:40:21;;;;;;;6.25;2.33;;;7.90;99.90;;;;;;5013887;28;20057;-80
2022/05/08 05:42:47;;;;;;;8.52;1.95;;;8.20;99.90;;;;;;5013325;28;20121;-80
2022/05/08 05:45:13;;;;;;;10.65;2.70;;;8.60;99.90;;;;;;5013224;28;20053;-79
2022/05/08 05:47:52;;;;;;;7.60;1.75;;;9.40;99.90;;;;;;5013277;28;20030;-79
2022/05/08 05:50:23;;;;;;;8.68;1.98;;;10.20;99.90;;;;;;5011783;28;20046;-80
2022/05/08 05:52:50;;;;;;;7.85;1.92;;;11.00;99.90;;;;;;5013404;28;20046;-80
2022/05/08 05:55:16;;;;;;;7.75;2.05;;;11.30;99.90;;;;;;5011805;28;20081;-80
2022/05/08 05:57:42;;;;;;;9.68;2.55;;;11.70;99.90;;;;;;5012374;28;20473;-80
2022/05/08 06:00:10;;;;;;;8.68;1.65;;;11.20;99.90;;;;;;5008031;28;20129;-80
2022/05/08 06:02:37;;;;;;;10.70;2.08;;;10.60;99.90;;;;;;5005605;28;20050;-80
2022/05/08 06:05:04;;;;;;;7.05;2.10;;;10.50;99.90;;;;;;5005271;28;20042;-80
2022/05/08 06:07:29;;;;;;;11.13;1.90;;;10.40;99.90;;;;;;5007829;28;20117;-80
2022/05/08 06:09:55;;;;;;;11.27;2.30;;;10.80;99.90;;;;;;5001380;28;20562;-80
2022/05/08 06:12:20;;;;;;;6.10;1.33;;;10.90;99.90;;;;;;5006482;28;20039;-80
2022/05/08 06:14:46;;;;;;;11.05;2.17;;;11.00;99.90;;;;;;5012672;28;20422;-79
2022/05/08 06:17:13;;;;;;;12.30;2.40;;;11.10;99.90;;;;;;5010789;28;20053;-81
2022/05/08 06:19:39;;;;;;;11.02;1.92;;;11.00;99.90;;;;;;5010720;28;20046;-81
2022/05/08 06:22:04;;;;;;;16.27;2.42;;;10.90;99.90;;;;;;5009682;28;20050;-81
2022/05/08 06:24:30;;;;;;;13.80;2.38;;;11.00;99.90;;;;;;5010369;28;20491;-81
2022/05/08 06:26:56;;;;;;;9.52;2.33;;;11.00;99.90;;;;;;5008989;28;20144;-81
2022/05/08 06:29:22;;;;;;;9.75;3.38;;;11.10;99.90;;;;;;5010445;28;20081;-80
2022/05/08 06:31:50;;;;;;;6.43;1.40;;;11.60;99.90;;;;;;5010315;28;20128;-81
2022/05/08 06:34:16;;;;;;;7.25;1.63;;;11.70;99.90;;;;;;5010517;28;20060;-80
2022/05/08 06:36:42;;;;;;;8.63;2.85;;;11.30;99.90;;;;;;5010390;28;20042;-81
2022/05/08 06:39:07;;;;;;;11.50;2.63;;;10.90;99.90;;;;;;5010196;28;20049;-80
2022/05/08 06:41:33;;;;;;;6.65;1.60;;;10.70;99.90;;;;;;5010667;28;20502;-80
2022/05/08 06:43:59;;;;;;;11.68;2.63;;;10.70;99.90;;;;;;5009316;28;20056;-81
2022/05/08 06:46:24;;;;;;;11.60;2.10;;;10.90;99.90;;;;;;5010014;28;20092;-81
2022/05/08 06:48:50;;;;;;;14.18;1.70;;;11.00;99.90;;;;;;5010075;28;20065;-81
2022/05/08 06:51:16;;;;;;;12.65;1.90;;;10.90;99.90;;;;;;5009834;28;20045;-80
2022/05/08 06:53:43;;;;;;;11.23;1.88;;;10.90;99.90;;;;;;5008523;28;20383;-80
2022/05/08 06:56:09;;;;;;;10.02;1.60;;;11.00;99.90;;;;;;5009483;28;20128;-81
2022/05/08 07:01:34;;;;;;;10.05;2.30;;;11.10;99.90;;;;;;5009849;28;20608;-80
2022/05/08 07:01:36;;;;;;;10.57;2.22;;;11.00;99.90;;;;;;5011505;28;20065;-81
2022/05/08 07:04:09;;;;;;;11.35;1.83;;;10.80;99.90;;;;;;5012737;28;20073;-81
2022/05/08 07:06:36;;;;;;;14.90;2.40;;;10.80;99.90;;;;;;5012698;28;20056;-81
2022/05/08 07:09:03;;;;;;;8.73;2.10;;;11.50;99.90;;;;;;5013180;28;20121;-81
2022/05/08 07:11:30;;;;;;;15.30;2.15;;;12.10;99.90;;;;;;5011827;28;20042;-81
2022/05/08 07:13:56;;;;;;;10.70;1.83;;;12.20;96.80;;;;;;5013225;28;20045;-81
2022/05/08 07:16:22;;;;;;;12.88;2.30;;;12.40;96.20;;;;;;5012642;28;20046;-80
2022/05/08 07:18:47;;;;;;;12.45;2.55;;;13.30;80.60;;;;;;5012960;28;20164;-82
2022/05/08 07:21:13;;;;;;;17.73;3.20;;;12.70;84.60;;;;;;5013227;28;20060;-80
2022/05/08 07:23:38;;;;;;;10.80;2.28;;;12.10;91.40;;;;;;5012258;28;20072;-80
2022/05/08 07:26:05;;;;;;;12.30;2.13;;;12.30;89.70;;;;;;5011225;28;20050;-81
2022/05/08 07:28:31;;;;;;;9.82;2.63;;;12.40;82.00;;;;;;5013652;28;20085;-80
2022/05/08 07:30:56;;;;;;;11.00;2.90;;;12.10;86.40;;;;;;5013131;28;20100;-81
2022/05/08 07:33:22;;;;;;;8.40;1.88;;;12.10;85.30;;;;;;5011040;28;20049;-81
2022/05/08 07:38:32;;;;;;;12.98;1.80;;;12.00;90.40;;;;;;5007073;28;20525;-80
2022/05/08 07:40:58;;;;;;;11.43;2.63;;;12.40;90.10;;;;;;5024979;28;20387;-80
2022/05/08 07:43:25;;;;;;;12.77;1.80;;;12.60;85.80;;;;;;5006021;28;20041;-81
2022/05/08 07:45:50;;;;;;;8.30;2.33;;;12.50;81.50;;;;;;5006939;28;20050;-80
2022/05/08 07:48:16;;;;;;;13.68;2.22;;;12.50;84.00;;;;;;5011466;28;20049;-80
2022/05/08 07:50:42;;;;;;;12.40;2.33;;;13.30;81.00;;;;;;5000579;28;20061;-80
2022/05/08 07:53:08;;;;;;;13.25;1.80;;;14.10;72.90;;;;;;4992758;28;20095;-80
2022/05/08 07:55:35;;;;;;;7.25;2.25;;;14.30;56.50;;;;;;5010582;28;20046;-79
2022/05/08 07:58:00;;;;;;;6.95;1.67;;;14.70;50.90;;;;;;5012622;28;20041;-78
2022/05/08 08:00:26;;;;;;;9.15;2.10;;;15.30;42.10;;;;;;5012418;28;20240;-78
2022/05/08 08:02:52;;;;;;;10.98;2.38;;;15.20;34.10;;;;;;5012624;28;20053;-78
2022/05/08 08:05:18;;;;;;;11.98;2.78;;;14.90;35.20;;;;;;5011732;28;20061;-78
2022/05/08 08:07:43;;;;;;;8.68;2.00;;;15.20;45.20;;;;;;5012648;28;20042;-79
2022/05/08 08:10:09;;;;;;;13.00;2.47;;;15.50;41.10;;;;;;5012356;28;20553;-79
2022/05/08 08:12:35;;;;;;;10.80;2.08;;;15.00;43.20;;;;;;5012447;28;20537;-78
2022/05/08 08:15:01;;;;;;;9.15;1.63;;;14.50;43.50;;;;;;5011605;28;20049;-81
2022/05/08 08:17:27;;;;;;;9.38;1.45;;;14.10;50.50;;;;;;5012159;28;20042;-81
2022/05/08 08:19:53;;;;;;;11.15;2.35;;;14.70;49.80;;;;;;5014622;28;20402;-80
2022/05/08 08:22:19;;;;;;;8.32;2.03;;;15.40;34.20;;;;;;5014622;28;20057;-80
2022/05/08 08:24:46;;;;;;;10.68;2.05;;;15.50;28.90;;;;;;5014156;28;20025;-80
2022/05/08 08:27:12;;;;;;;9.52;1.70;;;16.30;28.30;;;;;;5014161;28;20049;-81
2022/05/08 08:29:37;;;;;;;7.97;1.85;;;16.50;22.30;;;;;;5013193;28;20057;-81
2022/05/08 08:32:03;;;;;;;13.32;2.70;;;16.40;18.80;;;;;;5012003;28;20052;-80
2022/05/08 08:34:29;;;;;;;10.98;2.15;;;16.00;16.50;;;;;;5013225;28;20054;-80
2022/05/08 08:36:54;;;;;;;9.35;1.58;;;16.30;16.90;;;;;;5012804;28;20398;-80
2022/05/08 08:39:20;;;;;;;11.88;1.60;;;16.20;17.20;;;;;;5014603;28;20444;-80
2022/05/08 08:42:28;;;;;;;11.63;1.80;;;15.90;11.60;;;;;;5013163;28;20042;-81
2022/05/08 08:47:56;;;;;;;8.80;1.83;;;15.10;27.10;;;;;;4994467;28;20466;-80
2022/05/08 08:50:24;;;;;;;12.15;2.53;;;14.90;29.20;;;;;;4994273;28;20053;-80
2022/05/08 08:52:49;;;;;;;9.60;1.85;;;15.00;30.60;;;;;;4994122;28;20046;-80
2022/05/08 08:55:17;;;;;;;12.63;2.35;;;15.60;25.70;;;;;;4995808;28;20079;-80
2022/05/08 08:57:44;;;;;;;10.57;2.00;;;15.70;23.50;;;;;;5013610;28;20042;-80
2022/05/08 09:00:10;;;;;;;7.22;2.17;;;16.00;22.20;;;;;;5013365;28;20494;-81
2022/05/08 09:02:37;;;;;;;8.18;1.88;;;16.30;17.60;;;;;;5013850;28;20057;-80
2022/05/08 09:05:05;;;;;;;11.93;2.58;;;16.90;12.20;;;;;;5013318;28;20045;-80
2022/05/08 09:07:33;;;;;;;12.48;1.77;;;17.30;14.10;;;;;;5012867;28;20037;-81
2022/05/08 09:10:35;;;;;;;10.75;1.90;;;17.40;8.80;;;;;;5013803;28;20053;-80
2022/05/08 09:13:08;;;;;;;10.48;2.08;;;17.10;11.10;;;;;;5012833;28;20116;-81
2022/05/08 09:15:35;;;;;;;9.90;2.28;;;16.70;13.10;;;;;;5013279;28;20041;-80
2022/05/08 09:18:09;;;;;;;8.00;2.20;;;16.80;13.60;;;;;;4996159;28;20080;-80
2022/05/08 09:20:41;;;;;;;13.43;2.30;;;16.90;10.40;;;;;;5013868;28;20052;-80
2022/05/08 09:23:16;;;;;;;10.23;2.42;;;16.50;12.90;;;;;;5011932;28;20049;-81
2022/05/08 09:25:51;;;;;;;12.57;2.22;;;16.30;17.30;;;;;;5012241;28;20046;-80
2022/05/08 09:28:19;;;;;;;6.83;1.30;;;16.50;17.40;;;;;;4995981;28;20053;-80
2022/05/08 09:31:07;;;;;;;15.85;3.33;;;17.20;13.10;;;;;;5013128;28;20113;-80
2022/05/08 09:33:41;;;;;;;10.68;2.03;;;17.10;11.60;;;;;;5013332;28;20139;-81
2022/05/08 09:36:10;;;;;;;14.18;2.10;;;17.50;8.20;;;;;;5011942;28;20041;-80
2022/05/08 09:38:44;;;;;;;25.63;2.97;;;17.60;8.30;;;;;;5011822;28;20046;-80
2022/05/08 09:41:10;;;;;;;12.52;2.10;;;17.70;6.40;;;;;;5013381;28;20034;-80
2022/05/08 09:43:37;;;;;;;10.70;1.73;;;17.10;7.10;;;;;;5011841;28;20041;-80
2022/05/08 09:46:04;;;;;;;10.43;2.08;;;17.00;9.50;;;;;;5012682;28;20042;-80
2022/05/08 09:48:33;;;;;;;13.20;2.95;;;16.90;13.80;;;;;;5011422;28;20073;-81
2022/05/08 09:51:01;;;;;;;10.55;1.90;;;16.90;8.40;;;;;;5013267;28;20052;-80
2022/05/08 09:53:28;;;;;;;12.43;2.47;;;16.30;8.10;;;;;;5013436;28;20046;-80
2022/05/08 09:55:58;;;;;;;13.60;2.17;;;16.10;14.10;;;;;;5028209;28;20092;-80
2022/05/08 09:58:24;;;;;;;11.85;2.55;;;16.10;13.10;;;;;;5013257;28;20150;-81
2022/05/08 10:00:51;;;;;;;19.75;3.15;;;16.00;13.20;;;;;;5012470;28;20050;-81
2022/05/08 10:03:18;;;;;;;9.00;2.17;;;15.90;13.10;;;;;;5011924;28;20049;-80
2022/05/08 10:05:44;;;;;;;14.48;2.95;;;15.80;14.10;;;;;;5011429;28;20478;-80
2022/05/08 10:08:13;;;;;;;9.50;2.17;;;15.90;15.40;;;;;;5013343;28;20048;-80
2022/05/08 10:16:59;;;;;;;7.07;2.10;;;15.60;11.40;;;;;;5011133;28;19928;-81
2022/05/08 10:19:28;;;;;;;10.95;2.33;;;15.90;9.30;;;;;;5011412;28;20495;-80
2022/05/08 10:21:56;;;;;;;9.77;2.08;;;15.60;11.60;;;;;;5012671;28;20081;-80
2022/05/08 10:24:51;;;;;;;15.73;2.40;;;15.70;13.10;;;;;;4994953;28;20487;-81
2022/05/08 10:27:22;;;;;;;12.23;2.38;;;16.30;16.40;;;;;;5013096;28;20096;-81
2022/05/08 10:29:51;;;;;;;9.65;2.28;;;16.90;11.70;;;;;;5012886;28;20054;-81
2022/05/08 10:32:30;;;;;;;10.70;2.28;;;17.20;6.10;;;;;;5011668;28;20406;-81
2022/05/08 10:35:17;;;;;;;10.75;2.42;;;17.20;3.60;;;;;;5012566;28;20140;-80
2022/05/08 10:38:07;;;;;;;12.73;2.13;;;16.70;3.20;;;;;;5031419;28;20458;-81
2022/05/08 10:40:34;;;;;;;11.73;2.20;;;16.50;5.50;;;;;;5014877;28;20459;-81
2022/05/08 10:43:19;;;;;;;10.40;1.90;;;16.30;8.40;;;;;;5015023;28;20132;-81
2022/05/08 10:45:44;;;;;;;12.70;2.00;;;16.50;8.80;;;;;;5016282;28;20042;-80
2022/05/08 10:48:20;;;;;;;12.02;2.95;;;16.40;10.90;;;;;;5016333;28;20050;-80
2022/05/08 10:50:48;;;;;;;10.23;2.40;;;16.30;9.10;;;;;;5017851;28;20045;-79
2022/05/08 10:53:28;;;;;;;15.95;2.53;;;16.50;9.20;;;;;;5014875;28;20116;-80
2022/05/08 10:56:09;;;;;;;8.63;1.77;;;16.10;7.50;;;;;;5014802;28;20403;-80
2022/05/08 10:58:36;;;;;;;8.65;2.38;;;16.40;5.70;;;;;;5016030;28;20057;-80
2022/05/08 11:01:04;;;;;;;9.93;1.95;;;16.20;7.60;;;;;;4997597;28;20126;-80
2022/05/08 11:03:30;;;;;;;10.45;2.38;;;16.50;5.20;;;;;;5014807;28;20054;-80
2022/05/08 11:05:57;;;;;;;10.60;2.47;;;16.40;5.10;;;;;;5015521;28;20042;-81
2022/05/08 11:08:33;;;;;;;14.85;2.60;;;16.40;7.60;;;;;;5031436;28;20405;-81
2022/05/08 11:11:20;;;;;;;8.82;2.28;;;16.40;5.80;;;;;;5014496;28;20054;-80
2022/05/08 11:13:48;;;;;;;20.63;3.97;;;16.10;6.80;;;;;;5015635;28;20400;-81
2022/05/08 11:16:34;;;;;;;10.90;2.40;;;16.30;7.00;;;;;;5015253;28;20068;-80
2022/05/08 11:19:00;;;;;;;16.83;3.03;;;16.30;6.50;;;;;;5016054;28;20046;-81
2022/05/08 11:21:26;;;;;;;12.90;2.40;;;16.80;5.50;;;;;;5015544;28;20048;-80
2022/05/08 11:23:54;;;;;;;10.65;2.40;;;16.80;5.40;;;;;;5016639;28;20041;-81
2022/05/08 11:26:27;;;;;;;13.40;2.85;;;17.40;3.80;;;;;;5014343;28;20180;-81
2022/05/08 11:28:57;;;;;;;13.73;3.42;;;18.10;6.00;;;;;;5015409;28;20042;-81
2022/05/08 11:31:24;;;;;;;10.85;2.28;;;18.40;1.00;;;;;;5015724;28;20160;-81
2022/05/08 11:36:37;;;;;;;13.43;2.83;;;18.50;1.00;;;;;;5013934;28;20478;-80
2022/05/08 11:39:17;;;;;;;12.40;2.63;;;18.80;1.00;;;;;;5015131;28;20042;-81
2022/05/08 11:41:49;;;;;;;8.82;2.22;;;18.20;1.00;;;;;;5014412;28;20454;-81
2022/05/08 11:44:14;;;;;;;22.38;3.05;;;18.40;1.00;;;;;;5015373;28;20116;-80
2022/05/08 11:46:56;;;;;;;10.40;2.45;;;18.30;1.00;;;;;;5014530;28;20149;-81
2022/05/08 11:49:24;;;;;;;18.58;2.50;;;19.00;1.00;;;;;;5013865;28;20061;-81
2022/05/08 11:51:54;;;;;;;8.82;1.80;;;19.70;1.00;;;;;;5013795;28;20046;-81
2022/05/08 11:54:27;;;;;;;14.30;3.22;;;19.50;1.00;;;;;;5015260;28;20457;-81
2022/05/08 11:57:16;;;;;;;7.47;2.40;;;19.20;1.00;;;;;;4995187;28;20038;-81
2022/05/08 11:59:50;;;;;;;8.55;2.28;;;19.50;1.00;;;;;;4994917;28;20050;-82
2022/05/08 12:02:17;;;;;;;16.98;2.72;;;18.90;1.00;;;;;;5013405;28;20088;-80
2022/05/08 12:04:59;;;;;;;11.68;2.42;;;18.90;1.00;;;;;;4997032;28;20132;-82
2022/05/08 12:07:25;;;;;;;8.93;2.47;;;19.70;1.00;;;;;;5013826;28;20045;-82
2022/05/08 12:09:55;;;;;;;8.90;2.03;;;20.50;1.00;;;;;;5013299;28;20037;-81
2022/05/08 12:12:25;;;;;;;13.50;2.70;;;19.70;1.00;;;;;;5014045;28;20093;-81
2022/05/08 12:14:52;;;;;;;7.78;1.90;;;19.50;1.00;;;;;;5013055;28;20049;-81
2022/05/08 12:17:19;;;;;;;9.43;2.33;;;19.80;1.00;;;;;;5030230;28;20041;-81
2022/05/08 12:19:56;;;;;;;10.52;1.98;;;19.60;1.00;;;;;;5013333;28;20045;-81
2022/05/08 12:22:24;;;;;;;9.25;2.55;;;20.10;1.00;;;;;;5013377;28;20042;-79
2022/05/08 12:24:50;;;;;;;9.65;2.00;;;19.40;1.00;;;;;;5014195;28;20132;-82
2022/05/08 12:27:16;;;;;;;14.63;2.30;;;20.00;1.00;;;;;;5013237;28;20046;-82
2022/05/08 12:29:43;;;;;;;5.45;1.75;;;19.70;1.00;;;;;;5013179;28;20100;-82
2022/05/08 12:32:09;;;;;;;7.53;1.80;;;19.70;1.00;;;;;;5013252;28;20049;-82
2022/05/08 12:34:35;;;;;;;9.55;1.58;;;20.20;1.00;;;;;;5014105;28;20034;-82
2022/05/08 12:37:01;;;;;;;10.40;2.60;;;19.80;1.00;;;;;;5014088;28;20041;-82
2022/05/08 12:39:26;;;;;;;11.32;2.30;;;19.80;1.00;;;;;;5014199;28;20046;-82
2022/05/08 12:41:52;;;;;;;8.57;2.42;;;19.70;1.00;;;;;;5029533;28;20054;-82
2022/05/08 12:44:17;;;;;;;8.63;1.88;;;19.50;1.00;;;;;;5013181;28;20049;-82
2022/05/08 12:46:43;;;;;;;13.23;2.28;;;19.30;1.00;;;;;;5012637;28;20053;-81
2022/05/08 12:49:10;;;;;;;14.00;2.40;;;20.10;1.00;;;;;;5012703;28;20046;-82
2022/05/08 12:51:35;;;;;;;7.82;2.00;;;20.10;1.00;;;;;;5012852;28;20053;-81
2022/05/08 12:54:03;;;;;;;10.75;2.13;;;20.30;1.00;;;;;;5013726;28;20132;-82
2022/05/08 12:56:32;;;;;;;9.48;2.05;;;20.00;1.00;;;;;;5012100;28;20431;-81
2022/05/08 13:01:46;;;;;;;9.05;2.58;;;20.70;1.00;;;;;;5012059;28;20061;-81
2022/05/08 13:04:12;;;;;;;9.13;2.03;;;21.20;1.00;;;;;;5014359;28;20038;-82
2022/05/08 13:06:38;;;;;;;14.45;2.45;;;21.00;1.00;;;;;;4995822;28;20054;-81
2022/05/08 13:09:09;;;;;;;11.45;2.03;;;20.10;1.00;;;;;;4976959;28;20054;-81
2022/05/08 13:11:35;;;;;;;14.07;2.10;;;20.40;1.00;;;;;;5009002;28;20078;-81
2022/05/08 13:14:02;;;;;;;11.52;2.50;;;20.40;1.00;;;;;;5005498;28;20061;-82